Etusivu
METAR-TAF:

METAR-TAF

Lentoasemat :

Jedda, Saudi-Arabia

Kuningas Abdilazizin kansainvälinen lentoasema

Leveyspiiri: 21-42N, Pituuspiiri: 039-11E, korkeus merenpinnasta: 15 m

Tämänhetkinen sää

Tämä raportti tehtiin 31 minuuttia sitten, kello 17.00 UTC
Tuuli 6 kn lännestä
Lämpötila 30°C
Kosteus 66%
Ilmanpaine 1010 hPa
Näkyvyys 10 km tai enemmän
ei pilviä alle 1500 m:ssä eikä cumulonimbus-pilviä

METAR: OEJN 171700Z 27006KT CAVOK 30/23 Q1010 NOSIG

Aika: 20:31 (17:31 UTC)

Sääennuste

Tämä raportti tehtiin 6 tuntia ja 31 minuuttia sitten, kello 11.00 UTC
Ennuste voimassa 17. päivästä klo 12 UTC - 18. päivään klo 18 UTC
Tuuli 12 kn lännestä/lounaasta
Näkyvyys 10 km tai enemmän
Muutamia pilviä 4000 ft:n korkeudessa
Tulossa
17. päivästä klo 16 UTC - 17. päivään klo 18 UTC
Tuuli 6 kn koillisesta

TAF: OEJN 171100Z 1712/1818 24012KT 9999 FEW040 BECMG 1716/1718 05006KT

Säähavainnot ja -ennusteet yli 4000 lentoasemalta (METAR- ja TAF-raportit).

Käytössä olevat sääasemat on merkitty karttaan keltaisilla ja punaisilla pisteillä.

Aseta hiiri pisteen päälle nähdäksesi sääaseman nimen.

Klikkaa sitten nähdäksesi säähavainnot ja -ennusteet.

Kartan vaihtaminen: klikkaa mustalla rastilla varustettuja vihreitä pisteitä, niin voit zoomata sisään; viivalla varustettua vihreää pistettä, niin voit zoomata ulos tai vihreitä nuolia, niin pääset viereisille kartoille.


METAR-TAF: